createdAt,value
2023-05-21T00:00:22.276Z,10.30
2023-05-21T00:02:49.296Z,9.93
2023-05-21T00:05:18.268Z,7.72
2023-05-21T00:07:45.942Z,8.55
2023-05-21T00:10:13.060Z,8.57
2023-05-21T00:12:40.283Z,13.10
2023-05-21T00:15:08.165Z,8.60
2023-05-21T00:17:36.905Z,10.90
2023-05-21T00:20:07.305Z,8.68
2023-05-21T00:22:33.844Z,10.40
2023-05-21T00:25:00.563Z,9.82
2023-05-21T00:27:27.161Z,12.27
2023-05-21T00:29:53.764Z,12.05
2023-05-21T00:32:20.393Z,12.48
2023-05-21T00:34:47.352Z,9.95
2023-05-21T00:37:15.249Z,13.18
2023-05-21T00:39:42.158Z,9.50
2023-05-21T00:42:08.759Z,20.05
2023-05-21T00:44:35.463Z,13.05
2023-05-21T00:47:02.426Z,11.05
2023-05-21T00:49:29.107Z,12.88
2023-05-21T00:51:55.714Z,8.98
2023-05-21T00:54:22.735Z,10.50
2023-05-21T00:56:49.407Z,11.35
2023-05-21T00:59:16.844Z,10.65
2023-05-21T01:01:45.498Z,8.63
2023-05-21T01:04:13.195Z,9.18
2023-05-21T01:06:39.764Z,10.10
2023-05-21T01:09:07.355Z,14.93
2023-05-21T01:11:39.589Z,8.40
2023-05-21T01:14:09.433Z,9.98
2023-05-21T01:16:41.039Z,13.75
2023-05-21T01:19:10.854Z,9.85
2023-05-21T01:21:41.882Z,10.02
2023-05-21T01:24:08.457Z,9.77
2023-05-21T01:26:38.715Z,11.38
2023-05-21T01:29:06.626Z,13.15
2023-05-21T01:32:15.199Z,9.73
2023-05-21T01:34:56.426Z,13.75
2023-05-21T01:40:25.521Z,9.32
2023-05-21T01:42:52.358Z,12.98
2023-05-21T01:45:20.133Z,10.18
2023-05-21T01:47:48.326Z,12.60
2023-05-21T01:50:16.147Z,12.70
2023-05-21T01:52:53.062Z,10.00
2023-05-21T01:55:24.813Z,10.82
2023-05-21T01:57:55.857Z,14.48
2023-05-21T02:00:24.165Z,12.07
2023-05-21T02:02:51.687Z,12.80
2023-05-21T02:05:18.431Z,13.05
2023-05-21T02:07:46.069Z,9.95
2023-05-21T02:10:12.922Z,11.65
2023-05-21T02:12:39.579Z,9.32
2023-05-21T02:15:06.727Z,10.23
2023-05-21T02:17:34.256Z,13.82
2023-05-21T02:20:11.120Z,12.70
2023-05-21T02:22:39.452Z,10.15
2023-05-21T02:25:10.156Z,10.95
2023-05-21T02:27:37.798Z,14.10
2023-05-21T02:30:09.871Z,15.60
2023-05-21T02:32:36.656Z,10.20
2023-05-21T02:35:04.621Z,11.25
2023-05-21T02:37:34.712Z,13.18
2023-05-21T02:40:04.247Z,10.80
2023-05-21T02:42:30.902Z,11.10
2023-05-21T02:44:57.492Z,10.57
2023-05-21T02:47:24.207Z,12.90
2023-05-21T02:49:51.724Z,12.68
2023-05-21T02:52:19.837Z,16.98
2023-05-21T02:57:13.423Z,10.70
2023-05-21T02:59:40.128Z,10.25
2023-05-21T03:02:06.981Z,10.98
2023-05-21T03:04:39.197Z,11.35
2023-05-21T03:07:06.292Z,10.13
2023-05-21T03:09:32.879Z,9.30
2023-05-21T03:11:59.422Z,14.02
2023-05-21T03:14:26.021Z,10.88
2023-05-21T03:16:52.944Z,11.80
2023-05-21T03:19:20.870Z,9.50
2023-05-21T03:21:49.067Z,10.55
2023-05-21T03:24:15.733Z,16.83
2023-05-21T03:26:42.269Z,10.13
2023-05-21T03:29:08.817Z,10.02
2023-05-21T03:31:35.434Z,11.95
2023-05-21T03:34:01.961Z,11.32
2023-05-21T03:36:28.594Z,10.20
2023-05-21T03:38:55.146Z,9.38
2023-05-21T03:41:22.068Z,14.75
2023-05-21T03:43:48.616Z,10.43
2023-05-21T03:46:15.303Z,14.43
2023-05-21T03:48:41.911Z,11.93
2023-05-21T03:51:09.554Z,10.02
2023-05-21T03:53:36.857Z,17.85
2023-05-21T03:56:03.509Z,14.02
2023-05-21T03:58:30.958Z,10.38
2023-05-21T04:00:57.648Z,11.10
2023-05-21T04:03:24.340Z,14.80
2023-05-21T04:05:51.054Z,10.80
2023-05-21T04:08:17.652Z,11.80
2023-05-21T04:10:44.452Z,12.57
2023-05-21T04:13:11.074Z,12.07
2023-05-21T04:15:38.904Z,12.15
2023-05-21T04:18:07.271Z,10.30
2023-05-21T04:20:34.049Z,13.50
2023-05-21T04:23:01.196Z,12.50
2023-05-21T04:25:27.776Z,11.40
2023-05-21T04:27:54.736Z,12.10
2023-05-21T04:30:22.033Z,7.90
2023-05-21T04:32:48.813Z,10.77
2023-05-21T04:35:15.662Z,9.82
2023-05-21T04:37:42.179Z,11.70
2023-05-21T04:40:09.811Z,12.82
2023-05-21T04:42:36.545Z,11.32
2023-05-21T04:45:03.411Z,10.88
2023-05-21T04:47:30.474Z,11.32
2023-05-21T04:49:57.183Z,14.15
2023-05-21T04:52:25.072Z,12.45
2023-05-21T04:54:51.853Z,14.43
2023-05-21T04:57:18.456Z,9.70
2023-05-21T04:59:45.031Z,10.13
2023-05-21T05:02:11.722Z,10.95
2023-05-21T05:04:38.295Z,10.93
2023-05-21T05:07:05.039Z,12.15
2023-05-21T05:09:31.755Z,12.00
2023-05-21T05:11:58.339Z,8.73
2023-05-21T05:14:25.142Z,10.45
2023-05-21T05:16:51.775Z,10.20
2023-05-21T05:19:18.460Z,11.75
2023-05-21T05:21:45.017Z,13.45
2023-05-21T05:24:11.550Z,12.68
2023-05-21T05:26:38.282Z,16.73
2023-05-21T05:29:04.852Z,12.80
2023-05-21T05:31:31.517Z,13.63
2023-05-21T05:33:58.468Z,13.02
2023-05-21T05:36:25.165Z,8.68
2023-05-21T05:38:52.018Z,9.57
2023-05-21T05:41:18.566Z,9.07
2023-05-21T05:43:45.108Z,10.55
2023-05-21T05:46:11.685Z,10.07
2023-05-21T05:48:38.293Z,9.82
2023-05-21T05:51:05.279Z,8.90
2023-05-21T05:53:32.519Z,10.13
2023-05-21T05:55:59.867Z,10.48
2023-05-21T05:58:26.420Z,10.65
2023-05-21T06:00:53.014Z,10.25
2023-05-21T06:03:20.014Z,10.30
2023-05-21T06:05:46.806Z,20.70
2023-05-21T06:08:13.384Z,9.13
2023-05-21T06:10:39.966Z,9.70
2023-05-21T06:13:06.535Z,12.48
2023-05-21T06:15:33.734Z,12.20
2023-05-21T06:18:00.493Z,11.02
2023-05-21T06:20:27.691Z,9.02
2023-05-21T06:22:54.459Z,11.27
2023-05-21T06:25:21.025Z,9.75
2023-05-21T06:27:47.588Z,8.18
2023-05-21T06:30:14.177Z,11.40
2023-05-21T06:32:40.974Z,9.73
2023-05-21T06:35:08.060Z,7.75
2023-05-21T06:37:34.610Z,9.35
2023-05-21T06:40:01.533Z,8.30
2023-05-21T06:42:28.110Z,9.63
2023-05-21T06:44:54.952Z,14.43
2023-05-21T06:47:21.625Z,8.88
2023-05-21T06:49:48.226Z,9.60
2023-05-21T06:52:14.877Z,10.15
2023-05-21T06:54:42.427Z,11.88
2023-05-21T06:57:09.040Z,10.10
2023-05-21T06:59:35.668Z,9.98
2023-05-21T07:02:04.450Z,12.30
2023-05-21T07:04:31.608Z,11.35
2023-05-21T07:06:58.255Z,10.88
2023-05-21T07:09:24.827Z,10.52
2023-05-21T07:11:53.026Z,9.82
2023-05-21T07:14:19.617Z,8.90
2023-05-21T07:16:46.247Z,11.32
2023-05-21T07:19:12.917Z,15.10
2023-05-21T07:21:39.527Z,18.63
2023-05-21T07:24:06.339Z,9.15
2023-05-21T07:26:32.955Z,11.20
2023-05-21T07:28:59.564Z,10.52
2023-05-21T07:31:26.817Z,10.70
2023-05-21T07:33:53.460Z,10.30
2023-05-21T07:36:20.184Z,12.02
2023-05-21T07:38:46.899Z,15.18
2023-05-21T07:41:13.450Z,10.80
2023-05-21T07:43:40.009Z,11.52
2023-05-21T07:46:06.666Z,10.60
2023-05-21T07:48:35.452Z,13.13
2023-05-21T07:51:02.673Z,12.75
2023-05-21T07:53:32.269Z,11.10
2023-05-21T07:56:00.168Z,12.07
2023-05-21T07:58:26.716Z,8.85
2023-05-21T08:00:53.988Z,10.57
2023-05-21T08:03:20.736Z,9.27
2023-05-21T08:05:50.992Z,12.73
2023-05-21T08:08:20.166Z,10.20
2023-05-21T08:10:47.825Z,9.50
2023-05-21T08:13:16.669Z,11.63
2023-05-21T08:15:43.258Z,9.32
2023-05-21T08:18:10.155Z,9.55
2023-05-21T08:20:36.994Z,12.35
2023-05-21T08:23:04.252Z,9.38
2023-05-21T08:25:31.040Z,12.07
2023-05-21T08:27:57.662Z,10.38
2023-05-21T08:30:24.239Z,10.77
2023-05-21T08:32:50.826Z,8.32
2023-05-21T08:35:17.447Z,9.32
2023-05-21T08:37:44.068Z,10.45
2023-05-21T08:40:12.593Z,11.25
2023-05-21T08:42:49.221Z,12.25
2023-05-21T08:45:20.862Z,12.27
2023-05-21T08:47:48.184Z,9.20
2023-05-21T08:50:16.771Z,10.18
2023-05-21T08:52:44.455Z,11.55
2023-05-21T08:55:11.083Z,13.25
2023-05-21T08:57:43.521Z,12.43
2023-05-21T09:00:11.877Z,12.18
2023-05-21T09:02:41.078Z,12.73
2023-05-21T09:05:09.231Z,9.85
2023-05-21T09:08:05.437Z,10.15
2023-05-21T09:10:53.330Z,12.32
2023-05-21T09:13:20.837Z,10.40
2023-05-21T09:15:48.092Z,11.55
2023-05-21T09:18:15.067Z,11.07
2023-05-21T09:20:41.903Z,12.55
2023-05-21T09:23:16.956Z,13.93
2023-05-21T09:25:48.495Z,11.07
2023-05-21T09:28:16.212Z,11.07
2023-05-21T09:30:46.972Z,9.98
2023-05-21T09:33:30.122Z,10.35
2023-05-21T09:35:56.830Z,12.50
2023-05-21T09:38:24.330Z,11.93
2023-05-21T09:40:51.023Z,13.18
2023-05-21T09:43:17.783Z,8.27
2023-05-21T09:45:55.016Z,10.75
2023-05-21T09:48:43.068Z,11.23
2023-05-21T09:51:11.352Z,10.40
2023-05-21T09:53:54.621Z,9.48
2023-05-21T09:56:25.944Z,9.88
2023-05-21T09:58:54.971Z,8.82
2023-05-21T10:01:22.024Z,10.40
2023-05-21T10:03:58.504Z,15.32
2023-05-21T10:06:27.446Z,11.35
2023-05-21T10:08:56.868Z,8.30
2023-05-21T10:11:27.108Z,13.43
2023-05-21T10:14:19.250Z,12.10
2023-05-21T10:16:47.632Z,11.88
2023-05-21T10:19:16.111Z,10.18
2023-05-21T10:21:42.930Z,11.25
2023-05-21T10:24:10.227Z,9.23
2023-05-21T10:26:38.396Z,11.85
2023-05-21T10:29:05.180Z,9.18
2023-05-21T10:31:33.143Z,12.82
2023-05-21T10:34:00.668Z,9.10
2023-05-21T10:36:31.058Z,11.43
2023-05-21T10:38:58.625Z,12.65
2023-05-21T10:41:26.184Z,10.27
2023-05-21T10:44:20.289Z,8.77
2023-05-21T10:47:09.385Z,10.23
2023-05-21T10:50:09.328Z,13.05
2023-05-21T10:52:36.151Z,10.00
2023-05-21T10:55:02.630Z,11.20
2023-05-21T10:57:41.482Z,12.23
2023-05-21T11:00:10.109Z,12.10
2023-05-21T11:02:37.358Z,10.98
2023-05-21T11:05:04.629Z,13.52
2023-05-21T11:08:02.480Z,10.55
2023-05-21T11:10:39.491Z,9.10
2023-05-21T11:13:12.786Z,10.27
2023-05-21T11:15:57.701Z,9.13
2023-05-21T11:18:36.209Z,12.77
2023-05-21T11:21:06.454Z,10.60
2023-05-21T11:23:51.554Z,14.52
2023-05-21T11:26:26.401Z,18.30
2023-05-21T11:29:05.060Z,13.70
2023-05-21T11:31:38.184Z,9.88
2023-05-21T11:34:11.127Z,15.88
2023-05-21T11:36:39.078Z,10.48
2023-05-21T11:39:22.309Z,14.55
2023-05-21T11:42:04.343Z,11.52
2023-05-21T11:44:49.169Z,11.38
2023-05-21T11:47:17.920Z,8.75
2023-05-21T11:49:45.972Z,12.50
2023-05-21T11:52:13.793Z,13.02
2023-05-21T11:54:50.550Z,10.05
2023-05-21T11:57:19.293Z,13.27
2023-05-21T11:59:46.685Z,11.13
2023-05-21T12:02:20.206Z,12.20
2023-05-21T12:04:48.621Z,14.02
2023-05-21T12:07:17.328Z,11.80
2023-05-21T12:09:49.070Z,12.68
2023-05-21T12:12:21.435Z,13.27
2023-05-21T12:14:52.673Z,13.73
2023-05-21T12:17:21.024Z,11.00
2023-05-21T12:19:48.299Z,14.25
2023-05-21T12:22:16.574Z,11.93
2023-05-21T12:24:43.959Z,13.13
2023-05-21T12:27:12.945Z,14.15
2023-05-21T12:29:41.762Z,12.93
2023-05-21T12:32:10.591Z,12.88
2023-05-21T12:34:42.697Z,12.77
2023-05-21T12:37:09.347Z,15.75
2023-05-21T12:39:40.368Z,16.80
2023-05-21T12:42:07.194Z,13.13
2023-05-21T12:44:36.635Z,12.93
2023-05-21T12:47:03.785Z,15.38
2023-05-21T12:49:35.035Z,14.00
2023-05-21T12:52:14.264Z,12.30
2023-05-21T12:54:45.331Z,15.30
2023-05-21T12:57:17.623Z,12.90
2023-05-21T12:59:57.973Z,16.05
2023-05-21T13:04:56.582Z,16.48
2023-05-21T13:07:24.421Z,15.15
2023-05-21T13:09:53.222Z,21.23
2023-05-21T13:12:22.860Z,15.27
2023-05-21T13:14:55.012Z,14.27
2023-05-21T13:17:22.304Z,13.75
2023-05-21T13:20:08.844Z,15.40
2023-05-21T13:22:38.965Z,13.07
2023-05-21T13:25:06.621Z,15.65
2023-05-21T13:29:59.654Z,11.77
2023-05-21T13:32:26.345Z,16.98
2023-05-21T13:34:52.970Z,11.63
2023-05-21T13:37:20.574Z,15.95
2023-05-21T13:42:14.125Z,16.80
2023-05-21T13:44:40.773Z,16.35
2023-05-21T13:47:07.681Z,13.02
2023-05-21T13:49:34.592Z,14.32
2023-05-21T13:52:01.199Z,21.70
2023-05-21T13:54:28.122Z,16.67
2023-05-21T13:56:54.970Z,14.75
2023-05-21T13:59:22.085Z,10.68
2023-05-21T14:01:49.947Z,17.45
2023-05-21T14:04:17.830Z,13.80
2023-05-21T14:06:44.907Z,12.75
2023-05-21T14:09:11.845Z,15.50
2023-05-21T14:11:38.513Z,14.43
2023-05-21T14:14:05.668Z,13.70
2023-05-21T14:16:32.418Z,11.77
2023-05-21T14:18:59.248Z,20.90
2023-05-21T14:21:26.119Z,11.50
2023-05-21T14:23:52.964Z,13.10
2023-05-21T14:26:19.577Z,13.10
2023-05-21T14:28:46.336Z,13.63
2023-05-21T14:31:12.891Z,12.18
2023-05-21T14:33:39.492Z,15.00
2023-05-21T14:36:06.167Z,17.88
2023-05-21T14:38:32.763Z,17.45
2023-05-21T14:40:59.493Z,12.43
2023-05-21T14:43:26.049Z,13.38
2023-05-21T14:45:52.691Z,14.48
2023-05-21T14:48:22.852Z,12.93
2023-05-21T14:50:51.090Z,15.85
2023-05-21T14:53:18.737Z,13.43
2023-05-21T14:55:45.784Z,9.50
2023-05-21T14:58:12.378Z,17.08
2023-05-21T15:00:38.999Z,17.48
2023-05-21T15:03:06.141Z,14.63
2023-05-21T15:05:33.835Z,13.15
2023-05-21T15:10:28.184Z,15.15
2023-05-21T15:15:21.609Z,16.55
2023-05-21T15:17:48.960Z,21.60
2023-05-21T15:20:16.135Z,14.50
2023-05-21T15:22:42.973Z,15.02
2023-05-21T15:25:10.095Z,19.98
2023-05-21T15:27:36.697Z,16.55
2023-05-21T15:30:04.013Z,11.98
2023-05-21T15:32:31.388Z,13.82
2023-05-21T15:34:58.169Z,12.98
2023-05-21T15:37:24.813Z,15.10
2023-05-21T15:39:51.412Z,17.10
2023-05-21T15:42:18.037Z,17.30
2023-05-21T15:44:44.827Z,15.68
2023-05-21T15:47:11.427Z,12.70
2023-05-21T15:49:37.980Z,12.20
2023-05-21T15:52:04.774Z,12.90
2023-05-21T15:54:31.346Z,15.30
2023-05-21T15:56:57.933Z,12.93
2023-05-21T15:59:25.870Z,14.32
2023-05-21T16:01:52.499Z,14.27
2023-05-21T16:04:21.710Z,15.43
2023-05-21T16:06:48.419Z,17.15
2023-05-21T16:09:15.529Z,11.02
2023-05-21T16:11:44.686Z,14.02
2023-05-21T16:14:12.120Z,19.40
2023-05-21T16:16:38.960Z,13.80
2023-05-21T16:19:05.821Z,12.15
2023-05-21T16:21:33.025Z,18.95
2023-05-21T16:24:00.008Z,13.98
2023-05-21T16:26:26.574Z,20.73
2023-05-21T16:28:53.815Z,18.98
2023-05-21T16:31:20.530Z,17.73
2023-05-21T16:33:47.160Z,21.05
2023-05-21T16:36:15.027Z,16.27
2023-05-21T16:38:44.326Z,22.85
2023-05-21T16:41:11.164Z,17.10
2023-05-21T16:43:37.739Z,12.85
2023-05-21T16:46:04.356Z,15.38
2023-05-21T16:48:32.259Z,19.92
2023-05-21T16:50:59.387Z,14.32
2023-05-21T16:53:26.588Z,15.88
2023-05-21T16:55:53.173Z,16.58
2023-05-21T16:58:19.829Z,19.98
2023-05-21T17:00:46.561Z,15.05
2023-05-21T17:03:13.308Z,20.52
2023-05-21T17:05:40.048Z,14.93
2023-05-21T17:08:07.548Z,12.30
2023-05-21T17:10:34.277Z,16.70
2023-05-21T17:13:09.739Z,16.10
2023-05-21T17:15:44.675Z,14.30
2023-05-21T17:18:12.146Z,15.82
2023-05-21T17:20:38.987Z,15.38
2023-05-21T17:23:05.647Z,17.85
2023-05-21T17:25:34.298Z,18.20
2023-05-21T17:28:01.273Z,16.77
2023-05-21T17:30:27.870Z,14.85
2023-05-21T17:32:54.660Z,11.48
2023-05-21T17:35:21.467Z,15.50
2023-05-21T17:37:48.176Z,17.08
2023-05-21T17:40:14.845Z,18.13
2023-05-21T17:42:41.406Z,14.20
2023-05-21T17:45:08.473Z,22.48
2023-05-21T17:47:35.221Z,18.95
2023-05-21T17:50:01.882Z,14.32
2023-05-21T17:52:28.517Z,19.83
2023-05-21T17:54:55.129Z,20.85
2023-05-21T17:57:21.817Z,16.30
2023-05-21T17:59:48.492Z,20.13
2023-05-21T18:02:15.069Z,14.48
2023-05-21T18:04:41.598Z,17.27
2023-05-21T18:07:08.282Z,15.52
2023-05-21T18:09:34.883Z,21.00
2023-05-21T18:12:03.011Z,20.60
2023-05-21T18:14:30.041Z,22.88
2023-05-21T18:16:56.673Z,14.48
2023-05-21T18:19:23.440Z,19.67
2023-05-21T18:21:50.143Z,14.55
2023-05-21T18:24:16.694Z,23.80
2023-05-21T18:26:43.671Z,22.23
2023-05-21T18:29:11.273Z,16.67
2023-05-21T18:31:37.980Z,21.60
2023-05-21T18:34:04.576Z,18.85
2023-05-21T18:36:38.873Z,18.33
2023-05-21T18:39:06.872Z,23.90
2023-05-21T18:41:33.598Z,26.15
2023-05-21T18:44:01.975Z,16.67
2023-05-21T18:46:29.081Z,20.60
2023-05-21T18:48:56.417Z,16.38
2023-05-21T18:51:23.016Z,25.77
2023-05-21T18:53:49.586Z,20.67
2023-05-21T18:56:16.542Z,13.32
2023-05-21T18:58:43.107Z,21.33
2023-05-21T19:01:10.060Z,14.95
2023-05-21T19:03:36.803Z,26.88
2023-05-21T19:06:03.656Z,22.70
2023-05-21T19:08:30.251Z,19.65
2023-05-21T19:10:56.820Z,22.80
2023-05-21T19:13:23.716Z,21.58
2023-05-21T19:15:50.458Z,20.70
2023-05-21T19:18:17.326Z,19.20
2023-05-21T19:20:44.009Z,19.38
2023-05-21T19:23:10.823Z,21.73
2023-05-21T19:25:37.598Z,25.77
2023-05-21T19:28:04.295Z,20.08
2023-05-21T19:30:30.981Z,20.73
2023-05-21T19:32:57.857Z,19.40
2023-05-21T19:35:24.440Z,17.80
2023-05-21T19:37:51.160Z,20.65
2023-05-21T19:40:17.920Z,22.17
2023-05-21T19:42:44.771Z,19.40
2023-05-21T19:45:11.831Z,16.65
2023-05-21T19:47:41.043Z,20.73
2023-05-21T19:50:08.289Z,19.83
2023-05-21T19:52:34.868Z,27.85
2023-05-21T19:55:04.841Z,18.50
2023-05-21T19:57:32.795Z,19.52
2023-05-21T19:59:59.509Z,19.35
2023-05-21T20:02:28.791Z,19.92
2023-05-21T20:04:57.627Z,21.13
2023-05-21T20:07:24.409Z,18.95
2023-05-21T20:09:51.149Z,25.48
2023-05-21T20:12:17.824Z,21.73
2023-05-21T20:14:46.733Z,21.95
2023-05-21T20:17:14.638Z,20.50
2023-05-21T20:19:41.390Z,21.85
2023-05-21T20:22:08.062Z,28.38
2023-05-21T20:24:34.681Z,24.63
2023-05-21T20:27:01.699Z,46.15
2023-05-21T20:29:28.873Z,22.73
2023-05-21T20:31:55.495Z,26.15
2023-05-21T20:34:22.253Z,25.98
2023-05-21T20:36:48.866Z,29.20
2023-05-21T20:39:15.839Z,27.08
2023-05-21T20:41:44.852Z,31.63
2023-05-21T20:44:12.021Z,22.38
2023-05-21T20:46:39.010Z,27.95
2023-05-21T20:49:05.943Z,22.42
2023-05-21T20:51:32.660Z,31.52
2023-05-21T20:53:59.315Z,28.92
2023-05-21T20:56:40.815Z,25.30
2023-05-21T20:59:10.477Z,27.45
2023-05-21T21:01:38.167Z,29.67
2023-05-21T21:04:05.155Z,36.58
2023-05-21T21:06:32.017Z,32.30
2023-05-21T21:08:58.767Z,26.40
2023-05-21T21:11:26.652Z,24.38
2023-05-21T21:13:53.345Z,28.40
2023-05-21T21:16:19.989Z,18.98
2023-05-21T21:18:47.153Z,23.85
2023-05-21T21:21:13.872Z,33.28
2023-05-21T21:23:40.696Z,27.05
2023-05-21T21:26:07.369Z,27.92
2023-05-21T21:28:34.331Z,27.50
2023-05-21T21:31:00.991Z,33.05
2023-05-21T21:33:28.448Z,23.05
2023-05-21T21:35:55.326Z,23.42
2023-05-21T21:38:22.024Z,30.52
2023-05-21T21:40:48.956Z,25.90
2023-05-21T21:43:15.546Z,38.53
2023-05-21T21:45:42.210Z,24.55
2023-05-21T21:48:08.811Z,27.58
2023-05-21T21:50:35.511Z,23.73
2023-05-21T21:53:03.545Z,28.77
2023-05-21T21:55:30.350Z,23.48
2023-05-21T21:57:56.973Z,25.83
2023-05-21T22:00:26.725Z,29.88
2023-05-21T22:02:53.980Z,21.23
2023-05-21T22:05:21.000Z,28.13
2023-05-21T22:07:47.907Z,28.23
2023-05-21T22:10:16.149Z,27.02
2023-05-21T22:12:43.979Z,28.02
2023-05-21T22:15:25.190Z,33.90
2023-05-21T22:20:19.387Z,33.65
2023-05-21T22:22:46.239Z,28.02
2023-05-21T22:25:12.893Z,35.67
2023-05-21T22:27:40.301Z,27.15
2023-05-21T22:30:07.482Z,26.85
2023-05-21T22:32:34.119Z,28.98
2023-05-21T22:35:02.354Z,39.45
2023-05-21T22:37:28.957Z,35.17
2023-05-21T22:39:56.843Z,33.20
2023-05-21T22:42:23.752Z,34.22
2023-05-21T22:44:50.668Z,37.22
2023-05-21T22:47:17.583Z,33.03
2023-05-21T22:49:45.519Z,43.85
2023-05-21T22:52:12.080Z,31.55
2023-05-21T22:54:38.634Z,37.50
2023-05-21T22:57:05.697Z,29.98
2023-05-21T22:59:32.518Z,34.08
2023-05-21T23:01:59.283Z,29.38
2023-05-21T23:04:42.657Z,34.80
2023-05-21T23:07:10.296Z,28.88
2023-05-21T23:09:37.059Z,30.20
2023-05-21T23:12:04.030Z,32.22
2023-05-21T23:14:30.820Z,35.20
2023-05-21T23:17:01.937Z,29.52
2023-05-21T23:19:29.777Z,35.85
2023-05-21T23:21:56.590Z,35.78
2023-05-21T23:28:25.851Z,28.83
2023-05-21T23:30:52.846Z,33.17
2023-05-21T23:33:19.536Z,31.60
2023-05-21T23:35:46.116Z,36.75
2023-05-21T23:38:12.822Z,35.85
2023-05-21T23:40:39.594Z,47.60
2023-05-21T23:43:06.444Z,36.80
2023-05-21T23:45:33.149Z,33.67
2023-05-21T23:47:59.818Z,35.30
2023-05-21T23:50:26.427Z,30.50
2023-05-21T23:52:52.993Z,39.53
2023-05-21T23:55:19.642Z,39.38
2023-05-21T23:57:46.211Z,34.72
